Terminal Aerodrome Forecast
Issued by NWS Twin Cities, MN

Home | Current Version | Previous Version | Graphics & Text | Print | Product List | Glossary On
Versions: 1 2 3 4 5 6 7 8 9 10 11 12 13 14 15 16
000
FTUS43 KMPX 241100
TAFEAU
TAF
KEAU 241124Z 2412/2512 35006KT P6SM BKN015 OVC025
     FM241700 34007KT 6SM -SN BR SCT009 OVC015
     FM242100 33008KT P6SM OVC015
     FM250100 29005KT P6SM SCT007 OVC012
     FM250500 25004KT P6SM BKN007 OVC015=

USA.gov is the U.S. government's official web portal to all federal, state and local government web resources and services.